createdAt,value
2018-06-02T08:26:21.417Z,16.33
2018-06-02T08:28:56.395Z,16.27
2018-06-02T08:31:30.356Z,17.37
2018-06-02T08:34:04.089Z,18.67
2018-06-02T08:36:37.797Z,16.53
2018-06-02T08:39:11.629Z,14.40
2018-06-02T08:41:45.482Z,15.03
2018-06-02T08:44:20.162Z,14.73
2018-06-02T08:46:53.996Z,12.70
2018-06-02T08:49:27.737Z,13.87
2018-06-02T08:52:01.565Z,12.67
2018-06-02T08:54:36.199Z,14.57
2018-06-02T08:57:10.726Z,13.73
2018-06-02T08:59:44.433Z,15.90
2018-06-02T09:02:18.218Z,14.37
2018-06-02T09:04:51.996Z,18.87
2018-06-02T09:07:26.425Z,19.97
2018-06-02T09:10:00.891Z,15.20
2018-06-02T09:12:34.711Z,18.10
2018-06-02T09:15:08.517Z,14.37
2018-06-02T09:17:42.205Z,15.27
2018-06-02T09:20:16.009Z,14.00
2018-06-02T09:22:49.899Z,14.23
2018-06-02T09:25:23.601Z,11.57
2018-06-02T09:27:57.401Z,10.37
2018-06-02T09:30:31.120Z,9.13
2018-06-02T09:33:04.793Z,10.43
2018-06-02T09:35:38.609Z,9.27
2018-06-02T09:38:13.228Z,12.37
2018-06-02T09:40:47.080Z,10.83
2018-06-02T09:43:21.577Z,10.20
2018-06-02T09:45:55.285Z,9.73
2018-06-02T09:48:28.946Z,9.57
2018-06-02T09:51:02.906Z,7.93
2018-06-02T09:53:37.486Z,8.23
2018-06-02T09:56:11.202Z,8.67
2018-06-02T09:58:44.880Z,8.57
2018-06-02T10:01:18.604Z,7.47
2018-06-02T10:03:52.396Z,7.13
2018-06-02T10:06:27.014Z,6.77
2018-06-02T10:09:00.831Z,7.13
2018-06-02T10:11:34.705Z,7.40
2018-06-02T10:14:08.542Z,5.90
2018-06-02T10:16:42.414Z,6.23
2018-06-02T10:19:16.051Z,7.97
2018-06-02T10:21:50.465Z,5.83
2018-06-02T10:24:24.222Z,7.07
2018-06-02T10:26:58.075Z,5.40
2018-06-02T10:29:31.888Z,5.90
2018-06-02T10:32:05.637Z,5.00
2018-06-02T10:34:39.352Z,7.20
2018-06-02T10:37:13.363Z,4.57
2018-06-02T10:39:48.532Z,6.00
2018-06-02T10:42:23.197Z,5.87
2018-06-02T10:44:56.939Z,7.57
2018-06-02T10:47:30.767Z,5.30
2018-06-02T10:50:04.589Z,6.00
2018-06-02T10:52:39.183Z,7.80
2018-06-02T10:55:13.597Z,6.47
2018-06-02T10:57:47.413Z,5.20
2018-06-02T11:00:21.210Z,5.93
2018-06-02T11:02:55.043Z,4.90
2018-06-02T11:05:29.649Z,4.40
2018-06-02T11:08:03.336Z,4.43
2018-06-02T11:10:37.220Z,5.10
2018-06-02T11:13:11.043Z,5.23
2018-06-02T11:15:44.901Z,5.70
2018-06-02T11:18:18.661Z,5.47
2018-06-02T11:20:52.491Z,5.47
2018-06-02T11:23:27.134Z,7.00
2018-06-02T11:26:01.523Z,5.67
2018-06-02T11:28:35.525Z,8.37
2018-06-02T11:31:09.130Z,5.30
2018-06-02T11:33:42.960Z,6.23
2018-06-02T11:36:16.772Z,6.43
2018-06-02T11:38:51.359Z,6.07
2018-06-02T11:41:25.074Z,6.03
2018-06-02T11:43:58.968Z,5.90
2018-06-02T11:46:32.732Z,7.83
2018-06-02T11:49:06.571Z,8.00
2018-06-02T11:51:40.373Z,11.07
2018-06-02T11:54:14.219Z,25.67
2018-06-02T11:56:48.143Z,26.93
2018-06-02T11:59:22.908Z,22.73
2018-06-02T12:01:57.445Z,18.33
2018-06-02T12:04:32.021Z,25.27
2018-06-02T12:07:05.820Z,32.57
2018-06-02T12:09:39.747Z,36.77
2018-06-02T12:12:14.383Z,41.27
2018-06-02T12:14:48.982Z,36.47
2018-06-02T12:17:22.961Z,40.63
2018-06-02T12:19:57.692Z,37.63
2018-06-02T12:22:32.355Z,27.10
2018-06-02T12:25:06.009Z,29.90
2018-06-02T12:27:40.686Z,44.93
2018-06-02T12:30:15.317Z,36.33
2018-06-02T12:32:49.181Z,43.67
2018-06-02T12:35:23.735Z,42.43
2018-06-02T12:37:58.428Z,45.77
2018-06-02T12:40:33.139Z,43.23
2018-06-02T12:43:07.715Z,44.17
2018-06-02T12:45:41.590Z,44.30
2018-06-02T12:48:16.350Z,48.83
2018-06-02T12:50:50.395Z,45.10
2018-06-02T12:53:24.851Z,37.47
2018-06-02T12:55:58.744Z,44.17
2018-06-02T12:58:33.371Z,48.67
2018-06-02T13:01:07.265Z,48.17
2018-06-02T13:03:41.240Z,48.63
2018-06-02T13:06:14.944Z,46.80
2018-06-02T13:08:48.977Z,53.67
2018-06-02T13:11:22.974Z,41.37
2018-06-02T13:13:56.917Z,38.33
2018-06-02T13:16:30.822Z,43.60
2018-06-02T13:19:04.565Z,50.37
2018-06-02T13:21:38.540Z,48.87
2018-06-02T13:24:13.142Z,48.70
2018-06-02T13:26:46.829Z,49.77
2018-06-02T13:29:21.516Z,51.13
2018-06-02T13:31:56.143Z,52.60
2018-06-02T13:34:30.147Z,58.07
2018-06-02T13:37:04.032Z,53.47
2018-06-02T13:39:38.046Z,60.57
2018-06-02T13:42:11.990Z,62.60
2018-06-02T13:44:46.609Z,69.03
2018-06-02T13:47:20.418Z,70.40
2018-06-02T13:49:54.463Z,57.53
2018-06-02T13:52:28.231Z,64.10
2018-06-02T13:55:02.239Z,64.70
2018-06-02T13:57:36.114Z,60.53
2018-06-02T14:00:10.883Z,60.47
2018-06-02T14:02:44.840Z,62.37
2018-06-02T14:05:18.896Z,64.43
2018-06-02T14:07:52.690Z,65.30
2018-06-02T14:10:26.665Z,71.23
2018-06-02T14:13:00.627Z,50.00
2018-06-02T14:15:34.460Z,41.37
2018-06-02T14:18:08.184Z,45.00
2018-06-02T14:20:42.021Z,43.93
2018-06-02T14:23:15.827Z,50.30
2018-06-02T14:25:50.344Z,49.67
2018-06-02T14:28:24.235Z,42.00
2018-06-02T14:30:57.921Z,42.50
2018-06-02T14:33:32.311Z,44.00
2018-06-02T14:36:06.257Z,42.00
2018-06-02T14:38:40.071Z,37.70
2018-06-02T14:41:13.960Z,41.83
2018-06-02T14:43:47.742Z,38.43
2018-06-02T14:46:22.417Z,45.80
2018-06-02T14:48:56.215Z,38.13
2018-06-02T14:51:30.748Z,51.40
2018-06-02T14:54:04.861Z,58.97
2018-06-02T14:56:39.639Z,54.17
2018-06-02T14:59:13.601Z,52.47
2018-06-02T15:01:47.415Z,50.53
2018-06-02T15:04:21.379Z,50.47
2018-06-02T15:06:56.195Z,52.30
2018-06-02T15:09:30.678Z,44.70
2018-06-02T15:12:05.188Z,49.37
2018-06-02T15:14:39.037Z,49.60
2018-06-02T15:17:13.162Z,48.90
2018-06-02T15:19:48.048Z,52.53
2018-06-02T15:22:22.698Z,53.07
2018-06-02T15:24:56.420Z,49.53
2018-06-02T15:27:30.360Z,46.30
2018-06-02T15:30:03.991Z,46.90
2018-06-02T15:32:38.746Z,46.20
2018-06-02T15:35:12.652Z,44.93
2018-06-02T15:37:47.235Z,50.00
2018-06-02T15:40:21.137Z,45.77
2018-06-02T15:42:55.754Z,38.67
2018-06-02T15:45:29.475Z,37.97
2018-06-02T15:48:03.250Z,43.20
2018-06-02T15:50:37.008Z,36.57
2018-06-02T15:53:10.696Z,35.80
2018-06-02T15:55:44.497Z,36.00
2018-06-02T15:58:18.292Z,29.57
2018-06-02T16:00:52.160Z,29.33
2018-06-02T16:03:25.978Z,34.67
2018-06-02T16:05:59.846Z,30.13
2018-06-02T16:08:33.795Z,33.90
2018-06-02T16:11:08.300Z,36.67
2018-06-02T16:13:42.156Z,35.13
2018-06-02T16:16:16.071Z,40.03
2018-06-02T16:18:50.553Z,34.77
2018-06-02T16:21:25.160Z,35.77
2018-06-02T16:23:58.912Z,38.07
2018-06-02T16:26:32.753Z,38.50
2018-06-02T16:29:06.515Z,36.50
2018-06-02T16:31:40.984Z,41.97
2018-06-02T16:34:14.846Z,39.20
2018-06-02T16:36:49.262Z,46.53
2018-06-02T16:39:23.154Z,45.17
2018-06-02T16:41:57.713Z,44.27
2018-06-02T16:44:31.509Z,48.37
2018-06-02T16:47:05.359Z,43.47
2018-06-02T16:49:39.150Z,41.90
2018-06-02T16:52:12.981Z,43.97
2018-06-02T16:54:47.585Z,44.87
2018-06-02T16:57:21.404Z,43.33
2018-06-02T16:59:55.209Z,46.10
2018-06-02T17:02:29.085Z,43.90
2018-06-02T17:05:02.913Z,43.67
2018-06-02T17:07:36.762Z,44.17
2018-06-02T17:10:10.572Z,38.90
2018-06-02T17:12:44.378Z,41.10
2018-06-02T17:15:18.988Z,34.67
2018-06-02T17:17:53.732Z,37.10
2018-06-02T17:20:27.468Z,34.17
2018-06-02T17:23:01.220Z,32.53
2018-06-02T17:25:35.023Z,32.87
2018-06-02T17:28:08.776Z,34.87
2018-06-02T17:30:42.736Z,29.87
2018-06-02T17:33:16.544Z,28.30
2018-06-02T17:35:51.171Z,25.67
2018-06-02T17:38:25.181Z,23.83
2018-06-02T17:40:58.851Z,26.17
2018-06-02T17:43:34.341Z,23.97
2018-06-02T17:46:08.286Z,24.77
2018-06-02T17:48:42.193Z,23.50
2018-06-02T17:51:15.956Z,23.87
2018-06-02T17:53:49.849Z,23.50
2018-06-02T17:56:23.560Z,27.70
2018-06-02T17:58:57.318Z,24.70
2018-06-02T18:01:31.404Z,25.83
2018-06-02T18:04:05.181Z,24.50
2018-06-02T18:06:39.020Z,25.47
2018-06-02T18:09:13.570Z,25.00
2018-06-02T18:11:47.392Z,23.57
2018-06-02T18:14:21.165Z,32.53
2018-06-02T18:16:55.049Z,36.60
2018-06-02T18:19:28.752Z,36.37
2018-06-02T18:22:02.659Z,35.47
2018-06-02T18:24:36.626Z,37.27
2018-06-02T18:27:10.455Z,37.30
2018-06-02T18:29:44.372Z,39.67
2018-06-02T18:32:18.006Z,37.70
2018-06-02T18:34:51.867Z,36.40
2018-06-02T18:37:25.896Z,35.07
2018-06-02T18:39:59.952Z,36.97
2018-06-02T18:42:33.832Z,36.83
2018-06-02T18:45:08.682Z,38.97
2018-06-02T18:47:42.428Z,39.70
2018-06-02T18:50:17.145Z,35.37
2018-06-02T18:52:51.109Z,38.23
2018-06-02T18:55:25.884Z,38.37
2018-06-02T18:57:59.744Z,31.77
2018-06-02T19:00:34.288Z,30.57
2018-06-02T19:03:08.156Z,35.87
2018-06-02T19:05:42.733Z,32.03
2018-06-02T19:08:19.987Z,30.83
2018-06-02T19:10:53.887Z,35.17
2018-06-02T19:13:27.701Z,25.23
2018-06-02T19:16:01.685Z,32.53
2018-06-02T19:18:36.194Z,35.23
2018-06-02T19:21:10.252Z,35.33
2018-06-02T19:23:45.010Z,40.37
2018-06-02T19:26:18.785Z,27.83
2018-06-02T19:28:52.616Z,35.57
2018-06-02T19:31:27.323Z,41.57
2018-06-02T19:34:01.202Z,36.70
2018-06-02T19:36:34.937Z,41.87
2018-06-02T19:39:09.529Z,43.73
2018-06-02T19:41:43.467Z,47.43
2018-06-02T19:44:17.484Z,47.10
2018-06-02T19:46:51.372Z,54.17
2018-06-02T19:49:25.621Z,53.13
2018-06-02T19:51:59.722Z,47.63
2018-06-02T19:54:33.630Z,56.47
2018-06-02T19:57:08.459Z,54.07
2018-06-02T19:59:42.680Z,48.80
2018-06-02T20:02:17.407Z,47.87
2018-06-02T20:04:51.941Z,51.60
2018-06-02T20:07:25.940Z,57.53
2018-06-02T20:10:00.113Z,59.03
2018-06-02T20:12:34.842Z,57.73
2018-06-02T20:15:08.734Z,58.97
2018-06-02T20:17:43.187Z,56.23
2018-06-02T20:20:17.050Z,59.70
2018-06-02T20:22:51.725Z,61.40
2018-06-02T20:25:25.678Z,58.40
2018-06-02T20:27:59.747Z,62.77
2018-06-02T20:30:33.707Z,65.37
2018-06-02T20:33:08.202Z,64.27
2018-06-02T20:35:42.107Z,60.73
2018-06-02T20:38:15.978Z,72.60
2018-06-02T20:40:49.821Z,64.37
2018-06-02T20:43:23.866Z,67.67
2018-06-02T20:45:57.985Z,83.87
2018-06-02T20:48:33.706Z,107.03
2018-06-02T20:51:07.713Z,111.07
2018-06-02T20:53:41.756Z,98.37
2018-06-02T20:56:18.958Z,104.73
2018-06-02T20:58:52.976Z,109.10
2018-06-02T21:01:26.906Z,100.77
2018-06-02T21:04:01.535Z,103.60
2018-06-02T21:06:35.161Z,90.17
2018-06-02T21:09:09.147Z,100.43
2018-06-02T21:11:43.189Z,108.07
2018-06-02T21:14:17.915Z,105.40
2018-06-02T21:16:51.649Z,103.97
2018-06-02T21:19:26.387Z,94.80
2018-06-02T21:22:00.479Z,107.60
2018-06-02T21:24:34.393Z,92.17
2018-06-02T21:27:08.991Z,102.30
2018-06-02T21:29:43.680Z,101.50
2018-06-02T21:32:17.509Z,96.93
2018-06-02T21:34:52.063Z,102.37
2018-06-02T21:37:26.104Z,100.90
2018-06-02T21:40:00.847Z,92.60
2018-06-02T21:42:34.668Z,104.63
2018-06-02T21:45:08.445Z,99.10
2018-06-02T21:47:42.348Z,100.23
2018-06-02T21:50:17.102Z,99.27
2018-06-02T21:52:50.989Z,100.40
2018-06-02T21:55:25.022Z,103.07
2018-06-02T21:57:58.773Z,103.00
2018-06-02T22:00:32.875Z,100.70
2018-06-02T22:03:06.748Z,96.97
2018-06-02T22:05:41.409Z,94.93
2018-06-02T22:08:15.990Z,100.03
2018-06-02T22:10:50.152Z,97.90
2018-06-02T22:13:24.936Z,123.77
2018-06-02T22:15:58.754Z,97.37
2018-06-02T22:18:33.201Z,101.33
2018-06-02T22:21:07.182Z,91.50
2018-06-02T22:23:41.099Z,88.03
2018-06-02T22:26:15.279Z,97.83
2018-06-02T22:28:49.349Z,94.40
2018-06-02T22:31:24.081Z,96.07
2018-06-02T22:33:58.093Z,90.67
2018-06-02T22:36:32.212Z,95.10
2018-06-02T22:39:06.010Z,100.23
2018-06-02T22:41:39.776Z,101.63
2018-06-02T22:44:14.591Z,110.33
2018-06-02T22:46:49.165Z,112.10
2018-06-02T22:49:23.180Z,116.13
2018-06-02T22:51:58.139Z,110.70
2018-06-02T22:54:32.095Z,115.23
2018-06-02T22:57:10.245Z,103.67
2018-06-02T22:59:44.858Z,11.47
2018-06-02T23:02:18.683Z,7.53
2018-06-02T23:04:52.560Z,8.50
2018-06-02T23:07:26.357Z,7.33
2018-06-02T23:10:00.225Z,8.40
2018-06-02T23:12:33.924Z,8.70
2018-06-02T23:15:07.766Z,8.40
2018-06-02T23:17:41.404Z,8.07
2018-06-02T23:20:16.441Z,7.97
2018-06-02T23:22:50.272Z,7.33
2018-06-02T23:25:24.678Z,8.60
2018-06-02T23:27:58.442Z,9.17
2018-06-02T23:30:33.784Z,7.23
2018-06-02T23:33:08.313Z,8.07
2018-06-02T23:35:42.262Z,8.50
2018-06-02T23:38:16.260Z,7.50
2018-06-02T23:40:51.116Z,32.23
2018-06-02T23:43:26.410Z,31.77
2018-06-02T23:46:12.229Z,40.37
2018-06-02T23:48:46.739Z,38.33
2018-06-02T23:51:21.460Z,43.40
2018-06-02T23:53:57.111Z,39.13
2018-06-02T23:56:31.430Z,38.27
2018-06-02T23:59:05.606Z,41.47
